MSC Maeva — H9TF — position and weather

sailwx.info

Track history (hours):
 
Tides and Currents Weather Stations Pressure Air Temp Water Temp Dewpoint Dewpoint Depression Visibility Wind Speed Wind Dir Waves Ship Positions

MSC Maeva

Last reported at 2015-Jul-06 17:28 UTC. Time now 2015-Jul-06 17:46 UTC.
Position N 38°06' E 121°52'.

Type: Ship. MMSI: 371851000.

Date/timePositionNaut miles runAvg speedWind from/ knotsBaromVisibWave heightAir tempDewpointWater temp
2015-Jul-06 17:28N 38°06' E 121°52'1314.9
2015-Jul-06 16:33N 38°13' E 121°38'1514.8
2015-Jul-06 15:33N 38°21' E 121°21'2713.4
2015-Jul-06 13:32N 38°33' E 120°51'1111.4
2015-Jul-06 12:33N 38°35' E 120°36'1615.9
2015-Jul-06 11:33N 38°37' E 120°16'1616.1
2015-Jul-06 10:33N 38°39' E 119°56'1615.8
2015-Jul-06 09:33N 38°42' E 119°36'1616.2
2015-Jul-06 08:33N 38°44' E 119°15'1615.8
2015-Jul-06 07:33N 38°46' E 118°55'1615.8
2015-Jul-06 06:33N 38°48' E 118°35'1515.5
2015-Jul-06 05:33N 38°51' E 118°16'1611.6
2015-Jul-06 04:08N 38°57' E 117°56'711.8
2015-Jul-06 03:33N 38°59' E 117°48'1 1.2
2015-Jul-06 02:33N 38°60' E 117°47'0 0.0
2015-Jul-06 01:33N 38°60' E 117°47'0 0.0
2015-Jul-06 00:33N 38°60' E 117°47'0 0.0
2015-Jul-05 23:33N 38°60' E 117°47'0 0.0
2015-Jul-05 22:33N 38°60' E 117°47'0 0.0
2015-Jul-05 21:33N 38°60' E 117°47'0 0.0
2015-Jul-05 20:33N 38°60' E 117°47'0 0.0
2015-Jul-05 19:33N 38°60' E 117°47'0 0.0
2015-Jul-05 18:33N 38°60' E 117°47'0 0.0
2015-Jul-05 17:33N 38°60' E 117°47'0 0.0
2015-Jul-05 16:33N 38°60' E 117°47'0 0.0
2015-Jul-05 15:33N 38°60' E 117°47'0 0.0
2015-Jul-05 14:33N 38°60' E 117°47'0 0.0
2015-Jul-05 13:33N 38°60' E 117°47'0 0.0
2015-Jul-05 12:33N 38°60' E 117°47'0 0.0
2015-Jul-05 11:33N 38°60' E 117°47'0 0.0
2015-Jul-05 10:33N 38°60' E 117°47'0 0.0
2015-Jul-05 09:33N 38°60' E 117°47'0 0.0
2015-Jul-05 08:33N 38°60' E 117°47'0 0.0
2015-Jul-05 07:33N 38°60' E 117°47'4 3.9
2015-Jul-05 06:33N 38°58' E 117°51'1613.9
2015-Jul-05 05:25N 38°53' E 118°11'16312.7
2015-Jul-04 16:33N 38°21' E 121°36'1513.9
2015-Jul-04 15:27N 38°15' E 121°53'1213.9
2015-Jul-04 14:34N 38°09' E 122°07'1413.9
2015-Jul-04 13:33N 38°03' E 122°24'1713.7
2015-Jul-04 12:17N 37°56' E 122°43'1013.9
2015-Jul-04 11:33N 37°51' E 122°55'1413.9
2015-Jul-04 10:33N 37°46' E 123°11'24613.6
2015-Jul-03 16:32N 33°43' E 123°58'1515.0
2015-Jul-03 15:33N 33°28' E 123°58'1715.8
2015-Jul-03 14:30N 33°11' E 123°58'1816.5
2015-Jul-03 13:26N 32°54' E 123°58'1415.6
2015-Jul-03 12:33N 32°40' E 123°58'1515.0
2015-Jul-03 11:33N 32°25' E 123°58'1514.7
2015-Jul-03 10:33N 32°10' E 123°58'1514.5
2015-Jul-03 09:33N 31°56' E 123°58'9215.4
2015-Jul-03 03:33N 30°24' E 123°58'1715.4
2015-Jul-03 02:26N 30°06' E 123°57'1415.4
2015-Jul-03 01:33N 29°53' E 123°57'6014.3
2015-Jul-02 21:24N 28°58' E 123°29'66213.8
2015-Jun-30 21:28N 21°57' E 114°03'1511.6
2015-Jun-30 20:12N 22°07' E 113°51'813.0
2015-Jun-30 19:33N 22°15' E 113°48'1413.2
2015-Jun-30 18:32N 22°28' E 113°45'11 0.8
2015-Jun-30 05:15N 22°38' E 113°41'1 0.8
2015-Jun-30 04:21N 22°38' E 113°42'1612.9
2015-Jun-30 03:05N 22°22' E 113°47'612.4
2015-Jun-30 02:33N 22°16' E 113°48'1512.8
2015-Jun-30 01:22N 22°01' E 113°52'  
2015-Jun-26 20:13N 01°15' E 104°03'1115.5
2015-Jun-26 19:33N 01°12' E 103°53'7 7.2
2015-Jun-26 18:33N 01°15' E 103°47'1 1.3
2015-Jun-26 17:34N 01°16' E 103°46'  
Track history (hours):
 
Tides and Currents Weather Stations Pressure Air Temp Water Temp Dewpoint Dewpoint Depression Visibility Wind Speed Wind Dir Waves Ship Positions

MSC Maeva

Last reported at 2015-Jul-06 17:28 UTC. Time now 2015-Jul-06 17:46 UTC.
Position N 38°06' E 121°52'.

Type: Ship. MMSI: 371851000.

Date/timePositionNaut miles runAvg speedWind from/ knotsBaromVisibWave heightAir tempDewpointWater temp
2015-Jul-06 17:28N 38°06' E 121°52'1314.9
2015-Jul-06 16:33N 38°13' E 121°38'1514.8
2015-Jul-06 15:33N 38°21' E 121°21'2713.4
2015-Jul-06 13:32N 38°33' E 120°51'1111.4
2015-Jul-06 12:33N 38°35' E 120°36'1615.9
2015-Jul-06 11:33N 38°37' E 120°16'1616.1
2015-Jul-06 10:33N 38°39' E 119°56'1615.8
2015-Jul-06 09:33N 38°42' E 119°36'1616.2
2015-Jul-06 08:33N 38°44' E 119°15'1615.8
2015-Jul-06 07:33N 38°46' E 118°55'1615.8
2015-Jul-06 06:33N 38°48' E 118°35'1515.5
2015-Jul-06 05:33N 38°51' E 118°16'1611.6
2015-Jul-06 04:08N 38°57' E 117°56'711.8
2015-Jul-06 03:33N 38°59' E 117°48'1 1.2
2015-Jul-06 02:33N 38°60' E 117°47'0 0.0
2015-Jul-06 01:33N 38°60' E 117°47'0 0.0
2015-Jul-06 00:33N 38°60' E 117°47'0 0.0
2015-Jul-05 23:33N 38°60' E 117°47'0 0.0
2015-Jul-05 22:33N 38°60' E 117°47'0 0.0
2015-Jul-05 21:33N 38°60' E 117°47'0 0.0
2015-Jul-05 20:33N 38°60' E 117°47'0 0.0
2015-Jul-05 19:33N 38°60' E 117°47'0 0.0
2015-Jul-05 18:33N 38°60' E 117°47'0 0.0
2015-Jul-05 17:33N 38°60' E 117°47'0 0.0
2015-Jul-05 16:33N 38°60' E 117°47'0 0.0
2015-Jul-05 15:33N 38°60' E 117°47'0 0.0
2015-Jul-05 14:33N 38°60' E 117°47'0 0.0
2015-Jul-05 13:33N 38°60' E 117°47'0 0.0
2015-Jul-05 12:33N 38°60' E 117°47'0 0.0
2015-Jul-05 11:33N 38°60' E 117°47'0 0.0
2015-Jul-05 10:33N 38°60' E 117°47'0 0.0
2015-Jul-05 09:33N 38°60' E 117°47'0 0.0
2015-Jul-05 08:33N 38°60' E 117°47'0 0.0
2015-Jul-05 07:33N 38°60' E 117°47'4 3.9
2015-Jul-05 06:33N 38°58' E 117°51'1613.9
2015-Jul-05 05:25N 38°53' E 118°11'16312.7
2015-Jul-04 16:33N 38°21' E 121°36'1513.9
2015-Jul-04 15:27N 38°15' E 121°53'1213.9
2015-Jul-04 14:34N 38°09' E 122°07'1413.9
2015-Jul-04 13:33N 38°03' E 122°24'1713.7
2015-Jul-04 12:17N 37°56' E 122°43'1013.9
2015-Jul-04 11:33N 37°51' E 122°55'1413.9
2015-Jul-04 10:33N 37°46' E 123°11'24613.6
2015-Jul-03 16:32N 33°43' E 123°58'1515.0
2015-Jul-03 15:33N 33°28' E 123°58'1715.8
2015-Jul-03 14:30N 33°11' E 123°58'1816.5
2015-Jul-03 13:26N 32°54' E 123°58'1415.6
2015-Jul-03 12:33N 32°40' E 123°58'1515.0
2015-Jul-03 11:33N 32°25' E 123°58'1514.7
2015-Jul-03 10:33N 32°10' E 123°58'1514.5
2015-Jul-03 09:33N 31°56' E 123°58'9215.4
2015-Jul-03 03:33N 30°24' E 123°58'1715.4
2015-Jul-03 02:26N 30°06' E 123°57'1415.4
2015-Jul-03 01:33N 29°53' E 123°57'6014.3
2015-Jul-02 21:24N 28°58' E 123°29'66213.8
2015-Jun-30 21:28N 21°57' E 114°03'1511.6
2015-Jun-30 20:12N 22°07' E 113°51'813.0
2015-Jun-30 19:33N 22°15' E 113°48'1413.2
2015-Jun-30 18:32N 22°28' E 113°45'11 0.8
2015-Jun-30 05:15N 22°38' E 113°41'1 0.8
2015-Jun-30 04:21N 22°38' E 113°42'1612.9
2015-Jun-30 03:05N 22°22' E 113°47'612.4
2015-Jun-30 02:33N 22°16' E 113°48'1512.8
2015-Jun-30 01:22N 22°01' E 113°52'  
2015-Jun-26 20:13N 01°15' E 104°03'1115.5
2015-Jun-26 19:33N 01°12' E 103°53'7 7.2
2015-Jun-26 18:33N 01°15' E 103°47'1 1.3
2015-Jun-26 17:34N 01°16' E 103°46'  

Dump ship's entire track history